sensor_id;sensor_type;location;lat;lon;timestamp;temperature;humidity
7998;DHT22;4044;49.814;7.828;2023-03-01T00:01:55;-1.70;83.20
7998;DHT22;4044;49.814;7.828;2023-03-01T00:04:21;-1.70;80.50
7998;DHT22;4044;49.814;7.828;2023-03-01T00:06:46;-1.70;81.40
7998;DHT22;4044;49.814;7.828;2023-03-01T00:09:13;-1.70;81.60
7998;DHT22;4044;49.814;7.828;2023-03-01T00:11:39;-1.70;80.70
7998;DHT22;4044;49.814;7.828;2023-03-01T00:14:05;-1.70;81.20
7998;DHT22;4044;49.814;7.828;2023-03-01T00:16:34;-1.80;81.20
7998;DHT22;4044;49.814;7.828;2023-03-01T00:19:00;-1.80;81.70
7998;DHT22;4044;49.814;7.828;2023-03-01T00:21:26;-1.80;81.70
7998;DHT22;4044;49.814;7.828;2023-03-01T00:23:52;-1.80;84.10
7998;DHT22;4044;49.814;7.828;2023-03-01T00:26:19;-1.80;83.10
7998;DHT22;4044;49.814;7.828;2023-03-01T00:28:46;-1.90;82.80
7998;DHT22;4044;49.814;7.828;2023-03-01T00:31:16;-1.90;82.70
7998;DHT22;4044;49.814;7.828;2023-03-01T00:33:43;-1.90;82.10
7998;DHT22;4044;49.814;7.828;2023-03-01T00:36:10;-1.90;84.50
7998;DHT22;4044;49.814;7.828;2023-03-01T00:38:41;-1.90;82.70
7998;DHT22;4044;49.814;7.828;2023-03-01T00:41:16;-1.90;84.10
7998;DHT22;4044;49.814;7.828;2023-03-01T00:43:42;-1.90;83.20
7998;DHT22;4044;49.814;7.828;2023-03-01T00:46:11;-2.00;84.50
7998;DHT22;4044;49.814;7.828;2023-03-01T00:48:37;-1.90;82.80
7998;DHT22;4044;49.814;7.828;2023-03-01T00:51:11;-2.00;85.50
7998;DHT22;4044;49.814;7.828;2023-03-01T00:53:38;-2.00;83.00
7998;DHT22;4044;49.814;7.828;2023-03-01T00:56:05;-2.00;84.30
7998;DHT22;4044;49.814;7.828;2023-03-01T00:58:30;-2.00;84.40
7998;DHT22;4044;49.814;7.828;2023-03-01T01:00:56;-2.00;84.80
7998;DHT22;4044;49.814;7.828;2023-03-01T01:03:22;-2.00;85.50
7998;DHT22;4044;49.814;7.828;2023-03-01T01:05:53;-2.00;85.10
7998;DHT22;4044;49.814;7.828;2023-03-01T01:08:19;-2.00;86.20
7998;DHT22;4044;49.814;7.828;2023-03-01T01:10:46;-2.00;86.50
7998;DHT22;4044;49.814;7.828;2023-03-01T01:13:12;-2.00;83.70
7998;DHT22;4044;49.814;7.828;2023-03-01T01:15:38;-1.90;82.90
7998;DHT22;4044;49.814;7.828;2023-03-01T01:18:03;-2.00;85.30
7998;DHT22;4044;49.814;7.828;2023-03-01T01:20:29;-1.90;83.50
7998;DHT22;4044;49.814;7.828;2023-03-01T01:22:55;-2.00;85.90
7998;DHT22;4044;49.814;7.828;2023-03-01T01:25:20;-2.00;85.60
7998;DHT22;4044;49.814;7.828;2023-03-01T01:27:46;-2.00;85.40
7998;DHT22;4044;49.814;7.828;2023-03-01T01:30:12;-2.00;85.80
7998;DHT22;4044;49.814;7.828;2023-03-01T01:32:38;-2.00;85.80
7998;DHT22;4044;49.814;7.828;2023-03-01T01:35:04;-2.00;84.60
7998;DHT22;4044;49.814;7.828;2023-03-01T01:37:29;-2.00;84.30
7998;DHT22;4044;49.814;7.828;2023-03-01T01:39:59;-2.00;85.00
7998;DHT22;4044;49.814;7.828;2023-03-01T01:42:25;-1.90;83.60
7998;DHT22;4044;49.814;7.828;2023-03-01T01:47:59;-1.90;81.60
7998;DHT22;4044;49.814;7.828;2023-03-01T01:50:25;-1.90;85.00
7998;DHT22;4044;49.814;7.828;2023-03-01T01:52:52;-2.00;84.80
7998;DHT22;4044;49.814;7.828;2023-03-01T01:55:21;-2.00;85.90
7998;DHT22;4044;49.814;7.828;2023-03-01T01:57:52;-2.00;84.20
7998;DHT22;4044;49.814;7.828;2023-03-01T02:00:22;-2.00;84.50
7998;DHT22;4044;49.814;7.828;2023-03-01T02:02:52;-2.00;85.40
7998;DHT22;4044;49.814;7.828;2023-03-01T02:05:45;-1.90;84.50
7998;DHT22;4044;49.814;7.828;2023-03-01T02:08:13;-1.80;84.20
7998;DHT22;4044;49.814;7.828;2023-03-01T02:10:40;-2.00;85.20
7998;DHT22;4044;49.814;7.828;2023-03-01T02:13:06;-1.90;85.50
7998;DHT22;4044;49.814;7.828;2023-03-01T02:15:36;-1.90;85.30
7998;DHT22;4044;49.814;7.828;2023-03-01T02:18:03;-1.90;86.40
7998;DHT22;4044;49.814;7.828;2023-03-01T02:20:48;-1.90;86.50
7998;DHT22;4044;49.814;7.828;2023-03-01T02:23:16;-1.90;86.30
7998;DHT22;4044;49.814;7.828;2023-03-01T02:28:45;-1.80;84.80
7998;DHT22;4044;49.814;7.828;2023-03-01T02:31:17;-1.80;85.60
7998;DHT22;4044;49.814;7.828;2023-03-01T02:34:02;-1.80;86.40
7998;DHT22;4044;49.814;7.828;2023-03-01T02:36:34;-1.90;87.00
7998;DHT22;4044;49.814;7.828;2023-03-01T02:39:03;-1.90;88.30
7998;DHT22;4044;49.814;7.828;2023-03-01T02:41:34;-1.90;88.50
7998;DHT22;4044;49.814;7.828;2023-03-01T02:44:01;-1.80;86.30
7998;DHT22;4044;49.814;7.828;2023-03-01T02:46:27;-1.80;87.30
7998;DHT22;4044;49.814;7.828;2023-03-01T02:48:55;-1.70;85.60
7998;DHT22;4044;49.814;7.828;2023-03-01T02:54:10;-1.60;84.70
7998;DHT22;4044;49.814;7.828;2023-03-01T02:56:38;-1.60;84.70
7998;DHT22;4044;49.814;7.828;2023-03-01T02:59:04;-1.60;84.60
7998;DHT22;4044;49.814;7.828;2023-03-01T03:01:30;-1.50;84.40
7998;DHT22;4044;49.814;7.828;2023-03-01T03:04:11;-1.60;84.80
7998;DHT22;4044;49.814;7.828;2023-03-01T03:06:42;-1.60;84.00
7998;DHT22;4044;49.814;7.828;2023-03-01T03:09:08;-1.60;85.10
7998;DHT22;4044;49.814;7.828;2023-03-01T03:11:34;-1.60;86.10
7998;DHT22;4044;49.814;7.828;2023-03-01T03:13:59;-1.70;87.30
7998;DHT22;4044;49.814;7.828;2023-03-01T03:16:25;-1.70;85.60
7998;DHT22;4044;49.814;7.828;2023-03-01T03:18:50;-1.60;86.50
7998;DHT22;4044;49.814;7.828;2023-03-01T03:21:16;-1.60;85.30
7998;DHT22;4044;49.814;7.828;2023-03-01T03:23:43;-1.60;85.50
7998;DHT22;4044;49.814;7.828;2023-03-01T03:26:08;-1.50;84.70
7998;DHT22;4044;49.814;7.828;2023-03-01T03:28:35;-1.50;86.10
7998;DHT22;4044;49.814;7.828;2023-03-01T03:31:01;-1.50;84.80
7998;DHT22;4044;49.814;7.828;2023-03-01T03:33:30;-1.40;84.50
7998;DHT22;4044;49.814;7.828;2023-03-01T03:35:56;-1.40;85.20
7998;DHT22;4044;49.814;7.828;2023-03-01T03:38:22;-1.30;85.30
7998;DHT22;4044;49.814;7.828;2023-03-01T03:40:50;-1.40;86.40
7998;DHT22;4044;49.814;7.828;2023-03-01T03:43:18;-1.30;86.20
7998;DHT22;4044;49.814;7.828;2023-03-01T03:45:45;-1.30;86.60
7998;DHT22;4044;49.814;7.828;2023-03-01T03:48:11;-1.30;84.80
7998;DHT22;4044;49.814;7.828;2023-03-01T03:50:38;-1.30;86.30
7998;DHT22;4044;49.814;7.828;2023-03-01T03:53:07;-1.30;85.50
7998;DHT22;4044;49.814;7.828;2023-03-01T03:55:33;-1.20;86.00
7998;DHT22;4044;49.814;7.828;2023-03-01T03:58:00;-1.30;87.70
7998;DHT22;4044;49.814;7.828;2023-03-01T04:00:27;-1.30;86.00
7998;DHT22;4044;49.814;7.828;2023-03-01T04:02:53;-1.30;88.20
7998;DHT22;4044;49.814;7.828;2023-03-01T04:05:22;-1.30;86.70
7998;DHT22;4044;49.814;7.828;2023-03-01T04:07:47;-1.30;87.70
7998;DHT22;4044;49.814;7.828;2023-03-01T04:12:41;-1.30;87.60
7998;DHT22;4044;49.814;7.828;2023-03-01T04:15:09;-1.20;86.30
7998;DHT22;4044;49.814;7.828;2023-03-01T04:17:45;-1.10;87.20
7998;DHT22;4044;49.814;7.828;2023-03-01T04:20:13;-1.00;85.10
7998;DHT22;4044;49.814;7.828;2023-03-01T04:22:40;-1.00;85.90
7998;DHT22;4044;49.814;7.828;2023-03-01T04:25:06;-1.00;86.80
7998;DHT22;4044;49.814;7.828;2023-03-01T04:27:35;-1.00;85.00
7998;DHT22;4044;49.814;7.828;2023-03-01T04:30:03;-1.10;87.30
7998;DHT22;4044;49.814;7.828;2023-03-01T04:32:28;-1.10;86.40
7998;DHT22;4044;49.814;7.828;2023-03-01T04:34:54;-1.10;87.20
7998;DHT22;4044;49.814;7.828;2023-03-01T04:37:19;-1.00;86.50
7998;DHT22;4044;49.814;7.828;2023-03-01T04:39:45;-1.00;85.00
7998;DHT22;4044;49.814;7.828;2023-03-01T04:42:13;-1.00;86.60
7998;DHT22;4044;49.814;7.828;2023-03-01T04:44:38;-1.00;87.30
7998;DHT22;4044;49.814;7.828;2023-03-01T04:47:04;-1.00;86.90
7998;DHT22;4044;49.814;7.828;2023-03-01T04:49:30;-0.90;86.20
7998;DHT22;4044;49.814;7.828;2023-03-01T04:51:56;-0.90;85.90
7998;DHT22;4044;49.814;7.828;2023-03-01T04:54:23;-0.90;86.20
7998;DHT22;4044;49.814;7.828;2023-03-01T04:56:49;-0.90;86.50
7998;DHT22;4044;49.814;7.828;2023-03-01T04:59:14;-0.80;85.40
7998;DHT22;4044;49.814;7.828;2023-03-01T05:01:40;-0.80;85.60
7998;DHT22;4044;49.814;7.828;2023-03-01T05:04:08;-0.70;85.60
7998;DHT22;4044;49.814;7.828;2023-03-01T05:06:38;-0.60;85.00
7998;DHT22;4044;49.814;7.828;2023-03-01T05:09:04;-0.70;85.20
7998;DHT22;4044;49.814;7.828;2023-03-01T05:11:30;-0.60;84.80
7998;DHT22;4044;49.814;7.828;2023-03-01T05:13:59;-0.70;84.60
7998;DHT22;4044;49.814;7.828;2023-03-01T05:16:24;-0.70;85.40
7998;DHT22;4044;49.814;7.828;2023-03-01T05:18:50;-0.70;85.00
7998;DHT22;4044;49.814;7.828;2023-03-01T05:21:16;-0.60;85.10
7998;DHT22;4044;49.814;7.828;2023-03-01T05:23:42;-0.60;84.70
7998;DHT22;4044;49.814;7.828;2023-03-01T05:26:08;-0.70;85.50
7998;DHT22;4044;49.814;7.828;2023-03-01T05:28:34;-0.70;86.00
7998;DHT22;4044;49.814;7.828;2023-03-01T05:31:00;-0.70;85.70
7998;DHT22;4044;49.814;7.828;2023-03-01T05:33:26;-0.70;85.10
7998;DHT22;4044;49.814;7.828;2023-03-01T05:35:52;-0.70;86.40
7998;DHT22;4044;49.814;7.828;2023-03-01T05:38:19;-0.70;86.40
7998;DHT22;4044;49.814;7.828;2023-03-01T05:40:46;-0.70;86.10
7998;DHT22;4044;49.814;7.828;2023-03-01T05:43:13;-0.70;85.20
7998;DHT22;4044;49.814;7.828;2023-03-01T05:45:40;-0.60;86.20
7998;DHT22;4044;49.814;7.828;2023-03-01T05:48:06;-0.60;85.80
7998;DHT22;4044;49.814;7.828;2023-03-01T05:50:35;-0.50;85.60
7998;DHT22;4044;49.814;7.828;2023-03-01T05:53:05;-0.50;85.30
7998;DHT22;4044;49.814;7.828;2023-03-01T05:55:32;-0.60;85.00
7998;DHT22;4044;49.814;7.828;2023-03-01T05:57:59;-0.60;87.20
7998;DHT22;4044;49.814;7.828;2023-03-01T06:00:25;-0.70;87.10
7998;DHT22;4044;49.814;7.828;2023-03-01T06:02:51;-0.70;85.10
7998;DHT22;4044;49.814;7.828;2023-03-01T06:05:18;-0.70;86.30
7998;DHT22;4044;49.814;7.828;2023-03-01T06:07:43;-0.70;85.60
7998;DHT22;4044;49.814;7.828;2023-03-01T06:10:10;-0.70;86.10
7998;DHT22;4044;49.814;7.828;2023-03-01T06:12:38;-0.60;84.80
7998;DHT22;4044;49.814;7.828;2023-03-01T06:15:05;-0.70;85.40
7998;DHT22;4044;49.814;7.828;2023-03-01T06:17:33;-0.70;86.60
7998;DHT22;4044;49.814;7.828;2023-03-01T06:20:07;-0.70;86.50
7998;DHT22;4044;49.814;7.828;2023-03-01T06:22:33;-0.70;86.20
7998;DHT22;4044;49.814;7.828;2023-03-01T06:24:59;-0.60;85.40
7998;DHT22;4044;49.814;7.828;2023-03-01T06:27:25;-0.60;85.30
7998;DHT22;4044;49.814;7.828;2023-03-01T06:29:50;-0.70;85.60
7998;DHT22;4044;49.814;7.828;2023-03-01T06:32:16;-0.60;85.10
7998;DHT22;4044;49.814;7.828;2023-03-01T06:34:41;-0.70;86.40
7998;DHT22;4044;49.814;7.828;2023-03-01T06:37:07;-0.90;87.30
7998;DHT22;4044;49.814;7.828;2023-03-01T06:39:33;-1.00;88.70
7998;DHT22;4044;49.814;7.828;2023-03-01T06:41:59;-1.00;88.50
7998;DHT22;4044;49.814;7.828;2023-03-01T06:44:24;-0.90;87.70
7998;DHT22;4044;49.814;7.828;2023-03-01T06:46:50;-0.90;87.30
7998;DHT22;4044;49.814;7.828;2023-03-01T06:49:15;-0.90;87.10
7998;DHT22;4044;49.814;7.828;2023-03-01T06:51:41;-0.80;86.50
7998;DHT22;4044;49.814;7.828;2023-03-01T06:54:07;-0.70;86.20
7998;DHT22;4044;49.814;7.828;2023-03-01T06:56:32;-0.60;85.00
7998;DHT22;4044;49.814;7.828;2023-03-01T06:58:58;-0.50;87.00
7998;DHT22;4044;49.814;7.828;2023-03-01T07:01:23;-0.60;88.00
7998;DHT22;4044;49.814;7.828;2023-03-01T07:03:49;-0.60;88.20
7998;DHT22;4044;49.814;7.828;2023-03-01T07:06:15;-0.50;88.80
7998;DHT22;4044;49.814;7.828;2023-03-01T07:08:40;-0.40;88.00
7998;DHT22;4044;49.814;7.828;2023-03-01T07:11:06;-0.30;87.90
7998;DHT22;4044;49.814;7.828;2023-03-01T07:13:31;-0.20;87.80
7998;DHT22;4044;49.814;7.828;2023-03-01T07:15:57;0.00;87.80
7998;DHT22;4044;49.814;7.828;2023-03-01T07:18:23;0.00;86.50
7998;DHT22;4044;49.814;7.828;2023-03-01T07:20:48;0.20;86.60
7998;DHT22;4044;49.814;7.828;2023-03-01T07:23:14;0.30;85.30
7998;DHT22;4044;49.814;7.828;2023-03-01T07:25:40;0.50;85.70
7998;DHT22;4044;49.814;7.828;2023-03-01T07:28:06;0.70;85.20
7998;DHT22;4044;49.814;7.828;2023-03-01T07:30:31;0.80;85.30
7998;DHT22;4044;49.814;7.828;2023-03-01T07:32:58;0.90;84.70
7998;DHT22;4044;49.814;7.828;2023-03-01T07:35:25;1.00;84.10
7998;DHT22;4044;49.814;7.828;2023-03-01T07:37:51;1.20;83.50
7998;DHT22;4044;49.814;7.828;2023-03-01T07:40:17;1.40;82.20
7998;DHT22;4044;49.814;7.828;2023-03-01T07:42:43;1.60;81.20
7998;DHT22;4044;49.814;7.828;2023-03-01T07:45:09;1.70;80.10
7998;DHT22;4044;49.814;7.828;2023-03-01T07:47:34;1.80;80.10
7998;DHT22;4044;49.814;7.828;2023-03-01T07:50:00;1.90;79.60
7998;DHT22;4044;49.814;7.828;2023-03-01T07:52:26;2.00;79.40
7998;DHT22;4044;49.814;7.828;2023-03-01T07:54:52;2.10;78.90
7998;DHT22;4044;49.814;7.828;2023-03-01T07:57:17;2.10;78.70
7998;DHT22;4044;49.814;7.828;2023-03-01T07:59:43;2.20;78.90
7998;DHT22;4044;49.814;7.828;2023-03-01T08:02:10;2.20;77.90
7998;DHT22;4044;49.814;7.828;2023-03-01T08:04:35;2.30;78.40
7998;DHT22;4044;49.814;7.828;2023-03-01T08:07:04;2.30;78.70
7998;DHT22;4044;49.814;7.828;2023-03-01T08:09:29;2.30;78.10
7998;DHT22;4044;49.814;7.828;2023-03-01T08:11:56;2.30;78.40
7998;DHT22;4044;49.814;7.828;2023-03-01T08:14:22;2.30;78.20
7998;DHT22;4044;49.814;7.828;2023-03-01T08:16:49;2.40;78.40
7998;DHT22;4044;49.814;7.828;2023-03-01T08:19:15;2.50;78.90
7998;DHT22;4044;49.814;7.828;2023-03-01T08:21:40;2.60;78.60
7998;DHT22;4044;49.814;7.828;2023-03-01T08:24:06;2.60;77.90
7998;DHT22;4044;49.814;7.828;2023-03-01T08:26:33;2.70;77.80
7998;DHT22;4044;49.814;7.828;2023-03-01T08:29:00;2.70;77.00
7998;DHT22;4044;49.814;7.828;2023-03-01T08:31:28;2.80;77.10
7998;DHT22;4044;49.814;7.828;2023-03-01T08:33:56;2.80;76.50
7998;DHT22;4044;49.814;7.828;2023-03-01T08:36:24;2.90;76.30
7998;DHT22;4044;49.814;7.828;2023-03-01T08:38:51;2.90;76.10
7998;DHT22;4044;49.814;7.828;2023-03-01T08:41:17;3.00;75.40
7998;DHT22;4044;49.814;7.828;2023-03-01T08:43:42;3.00;75.20
7998;DHT22;4044;49.814;7.828;2023-03-01T08:46:08;3.00;75.30
7998;DHT22;4044;49.814;7.828;2023-03-01T08:48:34;3.00;74.90
7998;DHT22;4044;49.814;7.828;2023-03-01T08:51:15;3.10;74.90
7998;DHT22;4044;49.814;7.828;2023-03-01T08:53:41;3.10;74.60
7998;DHT22;4044;49.814;7.828;2023-03-01T08:56:08;3.10;74.40
7998;DHT22;4044;49.814;7.828;2023-03-01T08:58:34;3.10;74.30
7998;DHT22;4044;49.814;7.828;2023-03-01T09:01:00;3.10;74.60
7998;DHT22;4044;49.814;7.828;2023-03-01T09:03:26;3.20;74.10
7998;DHT22;4044;49.814;7.828;2023-03-01T09:05:52;3.20;74.10
7998;DHT22;4044;49.814;7.828;2023-03-01T09:08:19;3.20;74.00
7998;DHT22;4044;49.814;7.828;2023-03-01T09:10:44;3.30;74.10
7998;DHT22;4044;49.814;7.828;2023-03-01T09:13:10;3.30;73.70
7998;DHT22;4044;49.814;7.828;2023-03-01T09:15:39;3.40;73.80
7998;DHT22;4044;49.814;7.828;2023-03-01T09:18:05;3.50;73.60
7998;DHT22;4044;49.814;7.828;2023-03-01T09:20:32;3.60;73.20
7998;DHT22;4044;49.814;7.828;2023-03-01T09:22:58;3.60;73.10
7998;DHT22;4044;49.814;7.828;2023-03-01T09:25:24;3.60;72.70
7998;DHT22;4044;49.814;7.828;2023-03-01T09:27:53;3.70;73.60
7998;DHT22;4044;49.814;7.828;2023-03-01T09:30:20;3.80;72.80
7998;DHT22;4044;49.814;7.828;2023-03-01T09:32:46;3.90;72.60
7998;DHT22;4044;49.814;7.828;2023-03-01T09:35:12;4.00;72.30
7998;DHT22;4044;49.814;7.828;2023-03-01T09:37:38;4.00;72.10
7998;DHT22;4044;49.814;7.828;2023-03-01T09:40:06;4.10;72.00
7998;DHT22;4044;49.814;7.828;2023-03-01T09:42:34;4.10;72.00
7998;DHT22;4044;49.814;7.828;2023-03-01T09:45:11;4.20;71.90
7998;DHT22;4044;49.814;7.828;2023-03-01T09:47:37;4.30;71.90
7998;DHT22;4044;49.814;7.828;2023-03-01T09:50:15;4.30;72.40
7998;DHT22;4044;49.814;7.828;2023-03-01T09:53:02;4.40;71.40
7998;DHT22;4044;49.814;7.828;2023-03-01T09:55:52;4.40;71.10
7998;DHT22;4044;49.814;7.828;2023-03-01T09:58:49;4.50;71.10
7998;DHT22;4044;49.814;7.828;2023-03-01T10:06:33;4.80;70.60
7998;DHT22;4044;49.814;7.828;2023-03-01T10:11:41;4.90;70.30
7998;DHT22;4044;49.814;7.828;2023-03-01T10:14:34;5.00;70.30
7998;DHT22;4044;49.814;7.828;2023-03-01T10:19:43;5.10;69.50
7998;DHT22;4044;49.814;7.828;2023-03-01T10:22:20;5.30;69.80
7998;DHT22;4044;49.814;7.828;2023-03-01T10:24:51;5.40;69.30
7998;DHT22;4044;49.814;7.828;2023-03-01T10:27:19;5.40;69.40
7998;DHT22;4044;49.814;7.828;2023-03-01T10:30:12;5.50;68.90
7998;DHT22;4044;49.814;7.828;2023-03-01T10:32:42;5.60;68.70
7998;DHT22;4044;49.814;7.828;2023-03-01T10:35:34;5.80;68.90
7998;DHT22;4044;49.814;7.828;2023-03-01T10:38:10;5.90;69.20
7998;DHT22;4044;49.814;7.828;2023-03-01T10:40:50;6.00;68.10
7998;DHT22;4044;49.814;7.828;2023-03-01T10:43:16;6.10;67.50
7998;DHT22;4044;49.814;7.828;2023-03-01T10:45:42;6.20;67.40
7998;DHT22;4044;49.814;7.828;2023-03-01T10:48:15;6.30;66.80
7998;DHT22;4044;49.814;7.828;2023-03-01T10:50:50;6.50;67.00
7998;DHT22;4044;49.814;7.828;2023-03-01T10:53:22;6.60;66.80
7998;DHT22;4044;49.814;7.828;2023-03-01T10:56:08;6.70;66.10
7998;DHT22;4044;49.814;7.828;2023-03-01T10:58:36;6.90;66.00
7998;DHT22;4044;49.814;7.828;2023-03-01T11:01:23;7.00;65.60
7998;DHT22;4044;49.814;7.828;2023-03-01T11:06:30;7.20;65.20
7998;DHT22;4044;49.814;7.828;2023-03-01T11:08:56;7.30;64.80
7998;DHT22;4044;49.814;7.828;2023-03-01T11:11:32;7.50;64.60
7998;DHT22;4044;49.814;7.828;2023-03-01T11:14:15;7.60;64.30
7998;DHT22;4044;49.814;7.828;2023-03-01T11:16:44;7.70;64.10
7998;DHT22;4044;49.814;7.828;2023-03-01T11:21:41;7.80;63.90
7998;DHT22;4044;49.814;7.828;2023-03-01T11:24:12;7.90;63.80
7998;DHT22;4044;49.814;7.828;2023-03-01T11:26:45;7.90;63.80
7998;DHT22;4044;49.814;7.828;2023-03-01T11:29:39;8.00;63.30
7998;DHT22;4044;49.814;7.828;2023-03-01T11:32:08;8.10;63.30
7998;DHT22;4044;49.814;7.828;2023-03-01T11:34:56;8.10;63.10
7998;DHT22;4044;49.814;7.828;2023-03-01T11:37:53;8.30;62.70
7998;DHT22;4044;49.814;7.828;2023-03-01T11:42:58;8.70;61.90
7998;DHT22;4044;49.814;7.828;2023-03-01T11:48:37;8.70;61.80
7998;DHT22;4044;49.814;7.828;2023-03-01T11:51:17;8.90;61.90
7998;DHT22;4044;49.814;7.828;2023-03-01T11:56:39;9.20;60.60
7998;DHT22;4044;49.814;7.828;2023-03-01T11:59:28;9.20;60.90
7998;DHT22;4044;49.814;7.828;2023-03-01T12:05:44;9.50;59.90
7998;DHT22;4044;49.814;7.828;2023-03-01T12:11:36;9.60;60.10
7998;DHT22;4044;49.814;7.828;2023-03-01T12:20:02;10.40;58.00
7998;DHT22;4044;49.814;7.828;2023-03-01T12:25:39;11.00;57.30
7998;DHT22;4044;49.814;7.828;2023-03-01T12:28:24;11.40;57.10
7998;DHT22;4044;49.814;7.828;2023-03-01T12:37:28;12.70;55.80
7998;DHT22;4044;49.814;7.828;2023-03-01T12:40:27;13.20;54.60
7998;DHT22;4044;49.814;7.828;2023-03-01T12:43:17;13.70;53.60
7998;DHT22;4044;49.814;7.828;2023-03-01T12:46:19;14.10;52.90
7998;DHT22;4044;49.814;7.828;2023-03-01T12:49:08;14.80;52.40
7998;DHT22;4044;49.814;7.828;2023-03-01T12:51:37;15.20;51.80
7998;DHT22;4044;49.814;7.828;2023-03-01T12:54:26;15.60;50.70
7998;DHT22;4044;49.814;7.828;2023-03-01T12:56:53;15.80;49.80
7998;DHT22;4044;49.814;7.828;2023-03-01T12:59:31;16.10;49.90
7998;DHT22;4044;49.814;7.828;2023-03-01T13:04:50;16.20;49.10
7998;DHT22;4044;49.814;7.828;2023-03-01T13:10:29;17.30;49.50
7998;DHT22;4044;49.814;7.828;2023-03-01T13:17:58;18.00;46.90
7998;DHT22;4044;49.814;7.828;2023-03-01T13:20:33;18.00;46.20
7998;DHT22;4044;49.814;7.828;2023-03-01T13:23:02;18.30;46.00
7998;DHT22;4044;49.814;7.828;2023-03-01T13:25:28;18.30;45.60
7998;DHT22;4044;49.814;7.828;2023-03-01T13:30:58;18.60;44.30
7998;DHT22;4044;49.814;7.828;2023-03-01T13:35:57;19.00;44.70
7998;DHT22;4044;49.814;7.828;2023-03-01T13:38:45;18.90;44.10
7998;DHT22;4044;49.814;7.828;2023-03-01T13:41:13;19.30;44.50
7998;DHT22;4044;49.814;7.828;2023-03-01T13:43:41;19.50;43.30
7998;DHT22;4044;49.814;7.828;2023-03-01T13:46:20;19.60;44.10
7998;DHT22;4044;49.814;7.828;2023-03-01T13:48:50;19.60;42.40
7998;DHT22;4044;49.814;7.828;2023-03-01T13:51:23;19.90;43.20
7998;DHT22;4044;49.814;7.828;2023-03-01T13:53:49;19.80;42.40
7998;DHT22;4044;49.814;7.828;2023-03-01T13:56:19;19.80;42.40
7998;DHT22;4044;49.814;7.828;2023-03-01T13:58:59;19.80;41.50
7998;DHT22;4044;49.814;7.828;2023-03-01T14:01:32;19.60;42.00
7998;DHT22;4044;49.814;7.828;2023-03-01T14:03:59;20.00;41.70
7998;DHT22;4044;49.814;7.828;2023-03-01T14:06:27;20.00;41.30
7998;DHT22;4044;49.814;7.828;2023-03-01T14:09:21;20.10;41.30
7998;DHT22;4044;49.814;7.828;2023-03-01T14:11:52;20.20;41.20
7998;DHT22;4044;49.814;7.828;2023-03-01T14:17:32;20.70;41.30
7998;DHT22;4044;49.814;7.828;2023-03-01T14:20:07;21.00;40.00
7998;DHT22;4044;49.814;7.828;2023-03-01T14:22:34;20.80;40.40
7998;DHT22;4044;49.814;7.828;2023-03-01T14:25:15;21.20;40.50
7998;DHT22;4044;49.814;7.828;2023-03-01T14:27:42;21.50;40.10
7998;DHT22;4044;49.814;7.828;2023-03-01T14:30:17;21.50;39.70
7998;DHT22;4044;49.814;7.828;2023-03-01T14:33:01;21.60;39.30
7998;DHT22;4044;49.814;7.828;2023-03-01T14:35:33;21.20;39.70
7998;DHT22;4044;49.814;7.828;2023-03-01T14:37:59;21.20;39.40
7998;DHT22;4044;49.814;7.828;2023-03-01T14:40:43;21.30;40.10
7998;DHT22;4044;49.814;7.828;2023-03-01T14:43:11;21.50;39.50
7998;DHT22;4044;49.814;7.828;2023-03-01T14:45:37;21.40;39.10
7998;DHT22;4044;49.814;7.828;2023-03-01T14:48:04;21.50;39.90
7998;DHT22;4044;49.814;7.828;2023-03-01T14:50:32;21.40;38.40
7998;DHT22;4044;49.814;7.828;2023-03-01T14:53:06;21.50;40.00
7998;DHT22;4044;49.814;7.828;2023-03-01T14:55:35;21.20;38.90
7998;DHT22;4044;49.814;7.828;2023-03-01T14:58:04;21.20;38.80
7998;DHT22;4044;49.814;7.828;2023-03-01T15:00:32;21.70;40.80
7998;DHT22;4044;49.814;7.828;2023-03-01T15:05:47;21.00;37.90
7998;DHT22;4044;49.814;7.828;2023-03-01T15:08:22;21.10;40.20
7998;DHT22;4044;49.814;7.828;2023-03-01T15:13:40;21.30;39.10
7998;DHT22;4044;49.814;7.828;2023-03-01T15:16:06;20.60;40.30
7998;DHT22;4044;49.814;7.828;2023-03-01T15:18:33;20.00;40.00
7998;DHT22;4044;49.814;7.828;2023-03-01T15:23:41;19.00;40.40
7998;DHT22;4044;49.814;7.828;2023-03-01T15:26:42;18.20;41.70
7998;DHT22;4044;49.814;7.828;2023-03-01T15:29:17;18.10;42.40
7998;DHT22;4044;49.814;7.828;2023-03-01T15:31:57;17.50;42.50
7998;DHT22;4044;49.814;7.828;2023-03-01T15:34:25;17.60;42.80
7998;DHT22;4044;49.814;7.828;2023-03-01T15:36:54;17.50;43.90
7998;DHT22;4044;49.814;7.828;2023-03-01T15:39:39;17.30;44.00
7998;DHT22;4044;49.814;7.828;2023-03-01T15:42:09;16.90;43.80
7998;DHT22;4044;49.814;7.828;2023-03-01T15:44:37;17.00;44.60
7998;DHT22;4044;49.814;7.828;2023-03-01T15:47:29;17.20;44.60
7998;DHT22;4044;49.814;7.828;2023-03-01T15:49:54;17.50;44.70
7998;DHT22;4044;49.814;7.828;2023-03-01T15:52:35;16.70;43.80
7998;DHT22;4044;49.814;7.828;2023-03-01T15:55:14;15.60;45.50
7998;DHT22;4044;49.814;7.828;2023-03-01T15:57:40;14.80;46.00
7998;DHT22;4044;49.814;7.828;2023-03-01T16:00:09;14.00;46.90
7998;DHT22;4044;49.814;7.828;2023-03-01T16:02:39;13.70;48.20
7998;DHT22;4044;49.814;7.828;2023-03-01T16:05:05;13.30;48.30
7998;DHT22;4044;49.814;7.828;2023-03-01T16:07:31;12.90;48.60
7998;DHT22;4044;49.814;7.828;2023-03-01T16:09:57;12.80;50.00
7998;DHT22;4044;49.814;7.828;2023-03-01T16:12:23;12.70;50.70
7998;DHT22;4044;49.814;7.828;2023-03-01T16:14:49;12.40;50.20
7998;DHT22;4044;49.814;7.828;2023-03-01T16:17:15;12.00;50.30
7998;DHT22;4044;49.814;7.828;2023-03-01T16:19:41;11.80;50.60
7998;DHT22;4044;49.814;7.828;2023-03-01T16:22:08;11.70;50.70
7998;DHT22;4044;49.814;7.828;2023-03-01T16:24:34;11.60;51.90
7998;DHT22;4044;49.814;7.828;2023-03-01T16:27:01;11.30;51.70
7998;DHT22;4044;49.814;7.828;2023-03-01T16:29:26;11.20;52.70
7998;DHT22;4044;49.814;7.828;2023-03-01T16:31:54;11.10;52.20
7998;DHT22;4044;49.814;7.828;2023-03-01T16:34:19;10.90;52.30
7998;DHT22;4044;49.814;7.828;2023-03-01T16:36:47;10.60;53.20
7998;DHT22;4044;49.814;7.828;2023-03-01T16:39:12;10.40;52.60
7998;DHT22;4044;49.814;7.828;2023-03-01T16:41:37;10.30;52.70
7998;DHT22;4044;49.814;7.828;2023-03-01T16:44:03;10.20;53.70
7998;DHT22;4044;49.814;7.828;2023-03-01T16:46:29;10.00;54.20
7998;DHT22;4044;49.814;7.828;2023-03-01T16:48:55;9.90;55.60
7998;DHT22;4044;49.814;7.828;2023-03-01T16:51:22;9.60;55.30
7998;DHT22;4044;49.814;7.828;2023-03-01T16:53:48;9.50;55.20
7998;DHT22;4044;49.814;7.828;2023-03-01T16:56:14;9.30;55.70
7998;DHT22;4044;49.814;7.828;2023-03-01T16:58:40;9.20;55.60
7998;DHT22;4044;49.814;7.828;2023-03-01T17:01:18;8.90;55.70
7998;DHT22;4044;49.814;7.828;2023-03-01T17:03:45;8.70;56.30
7998;DHT22;4044;49.814;7.828;2023-03-01T17:06:14;8.50;56.70
7998;DHT22;4044;49.814;7.828;2023-03-01T17:08:40;8.20;57.20
7998;DHT22;4044;49.814;7.828;2023-03-01T17:11:16;8.20;57.60
7998;DHT22;4044;49.814;7.828;2023-03-01T17:13:43;7.90;57.60
7998;DHT22;4044;49.814;7.828;2023-03-01T17:16:11;7.80;58.00
7998;DHT22;4044;49.814;7.828;2023-03-01T17:18:37;7.70;58.10
7998;DHT22;4044;49.814;7.828;2023-03-01T17:21:04;7.60;58.40
7998;DHT22;4044;49.814;7.828;2023-03-01T17:23:30;7.40;59.20
7998;DHT22;4044;49.814;7.828;2023-03-01T17:25:56;7.30;58.50
7998;DHT22;4044;49.814;7.828;2023-03-01T17:28:24;7.20;58.30
7998;DHT22;4044;49.814;7.828;2023-03-01T17:30:50;7.00;60.00
7998;DHT22;4044;49.814;7.828;2023-03-01T17:33:16;6.80;60.50
7998;DHT22;4044;49.814;7.828;2023-03-01T17:35:42;6.60;61.40
7998;DHT22;4044;49.814;7.828;2023-03-01T17:38:10;6.50;61.30
7998;DHT22;4044;49.814;7.828;2023-03-01T17:40:36;6.40;61.50
7998;DHT22;4044;49.814;7.828;2023-03-01T17:43:04;6.30;61.90
7998;DHT22;4044;49.814;7.828;2023-03-01T17:45:29;6.20;62.40
7998;DHT22;4044;49.814;7.828;2023-03-01T17:47:55;6.20;61.50